Emine Anne — TCBX9 — position and weather

sailwx.info

Track history (hours):
 
Tides and Currents Weather Stations Pressure Air Temp Water Temp Dewpoint Dewpoint Depression Visibility Wind Speed Wind Dir Waves Ship Positions

Emine Anne

Last reported at 2014-Sep-17 14:32 UTC. Time now 2014-Sep-17 17:37 UTC.
Position N 40°58' E 028°55'.

Length 69 m; draft 2.4 m.

Type: Ship. MMSI: 271002305.

Date/timePositionNaut miles runAvg speedWind from/ knotsBaromVisibWave heightAir tempDewpointWater temp
2014-Sep-17 14:32N 40°58' E 028°55'0 0.0
2014-Sep-17 10:31N 40°58' E 028°55'0 0.0
2014-Sep-17 09:05N 40°58' E 028°55'0 0.0
2014-Sep-17 04:08N 40°58' E 028°55'0 0.0
2014-Sep-17 03:32N 40°58' E 028°55'0 0.0
2014-Sep-17 02:16N 40°58' E 028°55'0 0.0
2014-Sep-16 22:19N 40°58' E 028°55'0 0.0
2014-Sep-16 21:11N 40°58' E 028°55'0 0.0
2014-Sep-16 20:33N 40°58' E 028°55'0 0.0
2014-Sep-16 15:33N 40°58' E 028°55'  
2014-Sep-12 23:18N 40°57' E 028°54'2 2.6
2014-Sep-12 22:28N 40°59' E 028°56'0 0.0
2014-Sep-12 20:28N 40°59' E 028°56'34 5.0
2014-Sep-12 13:33N 41°21' E 029°31'  
2014-Sep-10 08:30N 44°26' E 037°34'9 8.9
2014-Sep-10 07:32N 44°32' E 037°42'8 8.5
2014-Sep-10 06:33N 44°39' E 037°50'5 5.2
2014-Sep-10 05:33N 44°44' E 037°48'0 0.0
2014-Sep-10 04:31N 44°44' E 037°48'0 0.0
2014-Sep-10 03:29N 44°44' E 037°48'0 0.0
2014-Sep-10 02:33N 44°44' E 037°48'0 0.0
2014-Sep-10 01:30N 44°44' E 037°48'0 0.0
2014-Sep-10 00:32N 44°44' E 037°48'0 0.0
2014-Sep-09 23:32N 44°44' E 037°48'0 0.0
2014-Sep-09 22:32N 44°44' E 037°48'0 0.0
2014-Sep-09 21:32N 44°44' E 037°48'0 0.0
2014-Sep-09 20:31N 44°44' E 037°48'0 0.0
2014-Sep-09 19:31N 44°44' E 037°48'0 0.0
2014-Sep-09 18:33N 44°44' E 037°48'0 0.0
2014-Sep-09 17:33N 44°44' E 037°48'0 0.0
2014-Sep-09 16:33N 44°44' E 037°48'0 0.0
2014-Sep-09 15:29N 44°44' E 037°48'0 0.0
2014-Sep-09 14:33N 44°44' E 037°48'0 0.0
2014-Sep-09 13:32N 44°44' E 037°48'0 0.0
2014-Sep-09 12:26N 44°44' E 037°48'0 0.0
2014-Sep-09 11:30N 44°44' E 037°48'0 0.0
2014-Sep-09 10:26N 44°44' E 037°48'0 0.0
2014-Sep-09 09:27N 44°44' E 037°48'0 0.0
2014-Sep-09 08:33N 44°44' E 037°48'0 0.0
2014-Sep-09 07:32N 44°44' E 037°48'0 0.0
2014-Sep-09 06:33N 44°44' E 037°48'0 0.0
2014-Sep-09 05:31N 44°44' E 037°48'0 0.0
2014-Sep-09 04:31N 44°44' E 037°48'0 0.0
2014-Sep-09 03:27N 44°44' E 037°48'0 0.0
2014-Sep-09 02:32N 44°44' E 037°48'0 0.0
2014-Sep-09 01:31N 44°44' E 037°48'0 0.0
2014-Sep-09 00:26N 44°44' E 037°48'0 0.0
2014-Sep-08 23:30N 44°44' E 037°48'0 0.0
2014-Sep-08 22:33N 44°44' E 037°48'0 0.0
2014-Sep-08 21:32N 44°44' E 037°48'0 0.0
2014-Sep-08 20:31N 44°44' E 037°48'0 0.0
2014-Sep-08 19:32N 44°44' E 037°48'0 0.0
2014-Sep-08 18:33N 44°44' E 037°48'0 0.0
2014-Sep-08 17:32N 44°44' E 037°48'0 0.0
2014-Sep-08 16:31N 44°44' E 037°48'0 0.0
2014-Sep-08 15:28N 44°44' E 037°48'0 0.0
2014-Sep-08 14:33N 44°44' E 037°48'0 0.0
2014-Sep-08 13:32N 44°44' E 037°48'0 0.0
2014-Sep-08 12:31N 44°44' E 037°48'6 3.1
2014-Sep-08 10:33N 44°39' E 037°53'1 1.0
2014-Sep-08 09:32N 44°39' E 037°55'0 0.0
2014-Sep-08 08:31N 44°39' E 037°55'0 0.0
2014-Sep-08 07:31N 44°39' E 037°55'0 0.0
2014-Sep-08 06:32N 44°39' E 037°55'0 0.0
2014-Sep-08 05:32N 44°39' E 037°55'0 0.0
2014-Sep-08 04:26N 44°39' E 037°55'5 5.7
2014-Sep-08 03:33N 44°35' E 037°50'  
Track history (hours):
 
Tides and Currents Weather Stations Pressure Air Temp Water Temp Dewpoint Dewpoint Depression Visibility Wind Speed Wind Dir Waves Ship Positions

Emine Anne

Last reported at 2014-Sep-17 14:32 UTC. Time now 2014-Sep-17 17:37 UTC.
Position N 40°58' E 028°55'.

Length 69 m; draft 2.4 m.

Type: Ship. MMSI: 271002305.

Date/timePositionNaut miles runAvg speedWind from/ knotsBaromVisibWave heightAir tempDewpointWater temp
2014-Sep-17 14:32N 40°58' E 028°55'0 0.0
2014-Sep-17 10:31N 40°58' E 028°55'0 0.0
2014-Sep-17 09:05N 40°58' E 028°55'0 0.0
2014-Sep-17 04:08N 40°58' E 028°55'0 0.0
2014-Sep-17 03:32N 40°58' E 028°55'0 0.0
2014-Sep-17 02:16N 40°58' E 028°55'0 0.0
2014-Sep-16 22:19N 40°58' E 028°55'0 0.0
2014-Sep-16 21:11N 40°58' E 028°55'0 0.0
2014-Sep-16 20:33N 40°58' E 028°55'0 0.0
2014-Sep-16 15:33N 40°58' E 028°55'  
2014-Sep-12 23:18N 40°57' E 028°54'2 2.6
2014-Sep-12 22:28N 40°59' E 028°56'0 0.0
2014-Sep-12 20:28N 40°59' E 028°56'34 5.0
2014-Sep-12 13:33N 41°21' E 029°31'  
2014-Sep-10 08:30N 44°26' E 037°34'9 8.9
2014-Sep-10 07:32N 44°32' E 037°42'8 8.5
2014-Sep-10 06:33N 44°39' E 037°50'5 5.2
2014-Sep-10 05:33N 44°44' E 037°48'0 0.0
2014-Sep-10 04:31N 44°44' E 037°48'0 0.0
2014-Sep-10 03:29N 44°44' E 037°48'0 0.0
2014-Sep-10 02:33N 44°44' E 037°48'0 0.0
2014-Sep-10 01:30N 44°44' E 037°48'0 0.0
2014-Sep-10 00:32N 44°44' E 037°48'0 0.0
2014-Sep-09 23:32N 44°44' E 037°48'0 0.0
2014-Sep-09 22:32N 44°44' E 037°48'0 0.0
2014-Sep-09 21:32N 44°44' E 037°48'0 0.0
2014-Sep-09 20:31N 44°44' E 037°48'0 0.0
2014-Sep-09 19:31N 44°44' E 037°48'0 0.0
2014-Sep-09 18:33N 44°44' E 037°48'0 0.0
2014-Sep-09 17:33N 44°44' E 037°48'0 0.0
2014-Sep-09 16:33N 44°44' E 037°48'0 0.0
2014-Sep-09 15:29N 44°44' E 037°48'0 0.0
2014-Sep-09 14:33N 44°44' E 037°48'0 0.0
2014-Sep-09 13:32N 44°44' E 037°48'0 0.0
2014-Sep-09 12:26N 44°44' E 037°48'0 0.0
2014-Sep-09 11:30N 44°44' E 037°48'0 0.0
2014-Sep-09 10:26N 44°44' E 037°48'0 0.0
2014-Sep-09 09:27N 44°44' E 037°48'0 0.0
2014-Sep-09 08:33N 44°44' E 037°48'0 0.0
2014-Sep-09 07:32N 44°44' E 037°48'0 0.0
2014-Sep-09 06:33N 44°44' E 037°48'0 0.0
2014-Sep-09 05:31N 44°44' E 037°48'0 0.0
2014-Sep-09 04:31N 44°44' E 037°48'0 0.0
2014-Sep-09 03:27N 44°44' E 037°48'0 0.0
2014-Sep-09 02:32N 44°44' E 037°48'0 0.0
2014-Sep-09 01:31N 44°44' E 037°48'0 0.0
2014-Sep-09 00:26N 44°44' E 037°48'0 0.0
2014-Sep-08 23:30N 44°44' E 037°48'0 0.0
2014-Sep-08 22:33N 44°44' E 037°48'0 0.0
2014-Sep-08 21:32N 44°44' E 037°48'0 0.0
2014-Sep-08 20:31N 44°44' E 037°48'0 0.0
2014-Sep-08 19:32N 44°44' E 037°48'0 0.0
2014-Sep-08 18:33N 44°44' E 037°48'0 0.0
2014-Sep-08 17:32N 44°44' E 037°48'0 0.0
2014-Sep-08 16:31N 44°44' E 037°48'0 0.0
2014-Sep-08 15:28N 44°44' E 037°48'0 0.0
2014-Sep-08 14:33N 44°44' E 037°48'0 0.0
2014-Sep-08 13:32N 44°44' E 037°48'0 0.0
2014-Sep-08 12:31N 44°44' E 037°48'6 3.1
2014-Sep-08 10:33N 44°39' E 037°53'1 1.0
2014-Sep-08 09:32N 44°39' E 037°55'0 0.0
2014-Sep-08 08:31N 44°39' E 037°55'0 0.0
2014-Sep-08 07:31N 44°39' E 037°55'0 0.0
2014-Sep-08 06:32N 44°39' E 037°55'0 0.0
2014-Sep-08 05:32N 44°39' E 037°55'0 0.0
2014-Sep-08 04:26N 44°39' E 037°55'5 5.7
2014-Sep-08 03:33N 44°35' E 037°50'  

Dump ship's entire track history